sensor_id;sensor_type;location;lat;lon;timestamp;pressure;altitude;pressure_sealevel;temperature;humidity
29879;BME280;16752;53.364;-1.488;2023-07-08T00:00:57;100124.03;;;26.64;32.14
29879;BME280;16752;53.364;-1.488;2023-07-08T00:03:41;100103.06;;;25.81;33.08
29879;BME280;16752;53.364;-1.488;2023-07-08T00:06:27;100204.97;;;27.07;32.10
29879;BME280;16752;53.364;-1.488;2023-07-08T00:09:17;100190.09;;;27.56;31.68
29879;BME280;16752;53.364;-1.488;2023-07-08T00:12:10;100147.09;;;26.98;31.86
29879;BME280;16752;53.364;-1.488;2023-07-08T00:15:19;100226.09;;;27.93;31.29
29879;BME280;16752;53.364;-1.488;2023-07-08T00:18:16;100057.25;;;26.67;31.33
29879;BME280;16752;53.364;-1.488;2023-07-08T00:21:14;100066.28;;;26.86;31.12
29879;BME280;16752;53.364;-1.488;2023-07-08T00:24:01;100131.81;;;26.92;31.97
29879;BME280;16752;53.364;-1.488;2023-07-08T00:26:45;100155.97;;;26.98;32.57
29879;BME280;16752;53.364;-1.488;2023-07-08T00:29:31;100129.84;;;27.19;31.49
29879;BME280;16752;53.364;-1.488;2023-07-08T00:32:15;100064.41;;;26.35;32.20
29879;BME280;16752;53.364;-1.488;2023-07-08T00:35:00;100156.66;;;27.38;31.61
29879;BME280;16752;53.364;-1.488;2023-07-08T00:37:46;100225.28;;;27.92;31.08
29879;BME280;16752;53.364;-1.488;2023-07-08T00:40:32;100037.88;;;26.59;31.83
29879;BME280;16752;53.364;-1.488;2023-07-08T00:43:39;100159.16;;;27.33;32.50
29879;BME280;16752;53.364;-1.488;2023-07-08T00:49:30;100214.38;;;27.43;32.38
29879;BME280;16752;53.364;-1.488;2023-07-08T00:52:26;100060.38;;;26.64;32.82
29879;BME280;16752;53.364;-1.488;2023-07-08T00:55:10;100049.88;;;26.56;32.82
29879;BME280;16752;53.364;-1.488;2023-07-08T00:57:55;100056.25;;;26.62;33.18
29879;BME280;16752;53.364;-1.488;2023-07-08T01:00:41;100050.72;;;26.43;33.84
29879;BME280;16752;53.364;-1.488;2023-07-08T01:03:27;100083.56;;;26.52;33.58
29879;BME280;16752;53.364;-1.488;2023-07-08T01:06:12;100140.53;;;26.80;33.77
29879;BME280;16752;53.364;-1.488;2023-07-08T01:09:02;100056.38;;;26.09;34.25
29879;BME280;16752;53.364;-1.488;2023-07-08T01:11:49;100117.06;;;26.43;34.05
29879;BME280;16752;53.364;-1.488;2023-07-08T01:14:36;100204.41;;;26.92;34.64
29879;BME280;16752;53.364;-1.488;2023-07-08T01:17:23;100137.09;;;26.40;34.79
29879;BME280;16752;53.364;-1.488;2023-07-08T01:20:11;100142.25;;;26.22;35.51
29879;BME280;16752;53.364;-1.488;2023-07-08T01:23:01;100153.41;;;26.32;35.25
29879;BME280;16752;53.364;-1.488;2023-07-08T01:25:46;100122.66;;;26.08;35.40
29879;BME280;16752;53.364;-1.488;2023-07-08T01:28:31;100085.50;;;25.79;35.23
29879;BME280;16752;53.364;-1.488;2023-07-08T01:31:16;100037.78;;;25.41;35.76
29879;BME280;16752;53.364;-1.488;2023-07-08T01:34:06;100156.34;;;26.04;36.13
29879;BME280;16752;53.364;-1.488;2023-07-08T01:36:55;100121.81;;;25.75;35.95
29879;BME280;16752;53.364;-1.488;2023-07-08T01:39:40;100124.31;;;25.76;36.23
29879;BME280;16752;53.364;-1.488;2023-07-08T01:42:24;100032.00;;;25.18;36.52
29879;BME280;16752;53.364;-1.488;2023-07-08T01:45:14;100135.44;;;25.73;36.24
29879;BME280;16752;53.364;-1.488;2023-07-08T01:48:14;100209.19;;;26.10;36.80
29879;BME280;16752;53.364;-1.488;2023-07-08T01:51:27;100055.88;;;25.06;36.89
29879;BME280;16752;53.364;-1.488;2023-07-08T01:54:44;100054.19;;;24.98;37.46
29879;BME280;16752;53.364;-1.488;2023-07-08T01:57:28;100106.81;;;25.13;38.20
29879;BME280;16752;53.364;-1.488;2023-07-08T02:00:40;100208.09;;;25.78;37.72
29879;BME280;16752;53.364;-1.488;2023-07-08T02:03:36;100108.47;;;25.14;37.83
29879;BME280;16752;53.364;-1.488;2023-07-08T02:06:35;100040.66;;;24.72;37.76
29879;BME280;16752;53.364;-1.488;2023-07-08T02:09:20;100100.16;;;24.95;38.89
29879;BME280;16752;53.364;-1.488;2023-07-08T02:12:28;100203.94;;;25.63;37.99
29879;BME280;16752;53.364;-1.488;2023-07-08T02:19:26;100128.72;;;25.16;38.29
29879;BME280;16752;53.364;-1.488;2023-07-08T02:25:54;100021.19;;;24.37;38.69
29879;BME280;16752;53.364;-1.488;2023-07-08T02:29:23;100175.81;;;25.45;38.26
29879;BME280;16752;53.364;-1.488;2023-07-08T02:32:35;100190.66;;;25.41;38.45
29879;BME280;16752;53.364;-1.488;2023-07-08T02:35:56;100032.13;;;24.49;38.60
29879;BME280;16752;53.364;-1.488;2023-07-08T02:39:02;100169.16;;;25.35;38.91
29879;BME280;16752;53.364;-1.488;2023-07-08T02:41:57;100017.66;;;24.36;38.63
29879;BME280;16752;53.364;-1.488;2023-07-08T02:44:41;100166.69;;;25.26;39.18
29879;BME280;16752;53.364;-1.488;2023-07-08T02:47:28;100013.94;;;24.31;39.10
29879;BME280;16752;53.364;-1.488;2023-07-08T02:50:15;100075.06;;;24.68;38.71
29879;BME280;16752;53.364;-1.488;2023-07-08T02:53:13;100124.63;;;24.92;38.61
29879;BME280;16752;53.364;-1.488;2023-07-08T02:55:58;100113.91;;;24.86;38.59
29879;BME280;16752;53.364;-1.488;2023-07-08T02:59:05;100033.94;;;24.35;38.60
29879;BME280;16752;53.364;-1.488;2023-07-08T03:01:52;100006.81;;;24.17;38.69
29879;BME280;16752;53.364;-1.488;2023-07-08T03:04:36;100175.69;;;25.12;38.67
29879;BME280;16752;53.364;-1.488;2023-07-08T03:07:32;100076.25;;;24.53;38.67
29879;BME280;16752;53.364;-1.488;2023-07-08T03:14:36;100161.00;;;25.02;38.79
29879;BME280;16752;53.364;-1.488;2023-07-08T03:17:29;100167.41;;;25.01;38.84
29879;BME280;16752;53.364;-1.488;2023-07-08T03:20:16;100004.44;;;23.94;38.53
29879;BME280;16752;53.364;-1.488;2023-07-08T03:23:07;99991.56;;;23.83;38.92
29879;BME280;16752;53.364;-1.488;2023-07-08T03:26:22;99999.28;;;23.92;38.97
29879;BME280;16752;53.364;-1.488;2023-07-08T03:29:18;100061.81;;;24.19;39.16
29879;BME280;16752;53.364;-1.488;2023-07-08T03:32:06;100169.13;;;24.80;39.25
29879;BME280;16752;53.364;-1.488;2023-07-08T03:35:01;99969.22;;;23.62;39.36
29879;BME280;16752;53.364;-1.488;2023-07-08T03:38:07;100158.59;;;24.79;39.58
29879;BME280;16752;53.364;-1.488;2023-07-08T03:40:57;100029.56;;;23.99;39.33
29879;BME280;16752;53.364;-1.488;2023-07-08T03:47:00;100138.13;;;24.64;39.97
29879;BME280;16752;53.364;-1.488;2023-07-08T03:49:48;99983.50;;;23.48;40.83
29879;BME280;16752;53.364;-1.488;2023-07-08T03:52:32;100043.19;;;23.55;41.05
29879;BME280;16752;53.364;-1.488;2023-07-08T03:55:17;99992.94;;;23.23;41.33
29879;BME280;16752;53.364;-1.488;2023-07-08T04:01:57;100005.78;;;22.91;41.74
29879;BME280;16752;53.364;-1.488;2023-07-08T04:08:33;100099.06;;;23.86;41.07
29879;BME280;16752;53.364;-1.488;2023-07-08T04:11:23;100098.16;;;24.07;40.57
29879;BME280;16752;53.364;-1.488;2023-07-08T04:14:09;99996.88;;;23.48;40.51
29879;BME280;16752;53.364;-1.488;2023-07-08T04:16:59;100013.97;;;23.54;40.61
29879;BME280;16752;53.364;-1.488;2023-07-08T04:19:46;100078.72;;;23.92;40.49
29879;BME280;16752;53.364;-1.488;2023-07-08T04:22:35;100081.22;;;24.00;41.11
29879;BME280;16752;53.364;-1.488;2023-07-08T04:25:24;100106.50;;;24.19;40.39
29879;BME280;16752;53.364;-1.488;2023-07-08T04:28:11;100139.38;;;24.34;40.81
29879;BME280;16752;53.364;-1.488;2023-07-08T04:30:56;100077.50;;;23.94;40.92
29879;BME280;16752;53.364;-1.488;2023-07-08T04:33:42;100048.16;;;23.80;41.12
29879;BME280;16752;53.364;-1.488;2023-07-08T04:36:29;99987.19;;;23.47;40.87
29879;BME280;16752;53.364;-1.488;2023-07-08T04:39:16;100093.25;;;24.11;41.27
29879;BME280;16752;53.364;-1.488;2023-07-08T04:42:04;100158.50;;;24.59;40.89
29879;BME280;16752;53.364;-1.488;2023-07-08T04:44:59;100103.38;;;24.15;41.05
29879;BME280;16752;53.364;-1.488;2023-07-08T04:47:47;100094.75;;;24.20;41.07
29879;BME280;16752;53.364;-1.488;2023-07-08T04:50:43;100108.69;;;24.36;40.96
29879;BME280;16752;53.364;-1.488;2023-07-08T04:53:31;100137.09;;;24.65;41.35
29879;BME280;16752;53.364;-1.488;2023-07-08T04:56:18;100066.38;;;24.25;40.71
29879;BME280;16752;53.364;-1.488;2023-07-08T04:59:26;100038.44;;;24.06;40.85
29879;BME280;16752;53.364;-1.488;2023-07-08T05:02:36;100109.22;;;24.53;40.82
29879;BME280;16752;53.364;-1.488;2023-07-08T05:05:34;99977.97;;;23.77;41.04
29879;BME280;16752;53.364;-1.488;2023-07-08T05:08:21;100082.97;;;24.42;41.05
29879;BME280;16752;53.364;-1.488;2023-07-08T05:11:05;100150.75;;;24.77;41.47
29879;BME280;16752;53.364;-1.488;2023-07-08T05:13:50;100151.22;;;24.87;41.72
29879;BME280;16752;53.364;-1.488;2023-07-08T05:16:35;100036.28;;;24.23;41.95
29879;BME280;16752;53.364;-1.488;2023-07-08T05:19:32;99952.25;;;23.76;41.22
29879;BME280;16752;53.364;-1.488;2023-07-08T05:22:21;100033.34;;;24.46;40.70
29879;BME280;16752;53.364;-1.488;2023-07-08T05:25:09;100079.28;;;24.91;40.90
29879;BME280;16752;53.364;-1.488;2023-07-08T05:27:56;100081.28;;;25.17;40.65
29879;BME280;16752;53.364;-1.488;2023-07-08T05:30:46;100144.50;;;25.66;40.51
29879;BME280;16752;53.364;-1.488;2023-07-08T05:33:50;99967.56;;;24.78;40.10
29879;BME280;16752;53.364;-1.488;2023-07-08T05:36:46;100043.56;;;25.38;40.08
29879;BME280;16752;53.364;-1.488;2023-07-08T05:39:39;100140.22;;;26.11;40.25
29879;BME280;16752;53.364;-1.488;2023-07-08T05:42:42;100076.00;;;25.76;39.88
29879;BME280;16752;53.364;-1.488;2023-07-08T05:45:41;99942.25;;;25.14;39.57
29879;BME280;16752;53.364;-1.488;2023-07-08T05:48:28;100144.13;;;26.41;39.31
29879;BME280;16752;53.364;-1.488;2023-07-08T05:51:14;100048.38;;;25.82;38.03
29879;BME280;16752;53.364;-1.488;2023-07-08T05:53:58;100139.53;;;26.75;38.12
29879;BME280;16752;53.364;-1.488;2023-07-08T05:56:43;100053.28;;;25.92;37.40
29879;BME280;16752;53.364;-1.488;2023-07-08T05:59:28;99968.47;;;25.78;37.24
29879;BME280;16752;53.364;-1.488;2023-07-08T06:02:18;100049.28;;;26.41;37.04
29879;BME280;16752;53.364;-1.488;2023-07-08T06:05:38;100089.84;;;26.91;35.96
29879;BME280;16752;53.364;-1.488;2023-07-08T06:08:47;100094.47;;;27.22;35.60
29879;BME280;16752;53.364;-1.488;2023-07-08T06:11:39;100092.69;;;27.40;35.81
29879;BME280;16752;53.364;-1.488;2023-07-08T06:14:27;100147.97;;;27.36;35.52
29879;BME280;16752;53.364;-1.488;2023-07-08T06:17:15;99968.34;;;26.75;34.64
29879;BME280;16752;53.364;-1.488;2023-07-08T06:23:58;100051.97;;;27.30;35.68
29879;BME280;16752;53.364;-1.488;2023-07-08T06:26:48;99971.75;;;26.89;34.83
29879;BME280;16752;53.364;-1.488;2023-07-08T06:29:38;99968.44;;;26.94;34.82
29879;BME280;16752;53.364;-1.488;2023-07-08T06:32:25;100010.19;;;27.34;34.55
29879;BME280;16752;53.364;-1.488;2023-07-08T06:35:09;100109.63;;;27.79;34.42
29879;BME280;16752;53.364;-1.488;2023-07-08T06:37:53;100112.69;;;27.51;34.62
29879;BME280;16752;53.364;-1.488;2023-07-08T06:40:39;100075.44;;;27.55;34.79
29879;BME280;16752;53.364;-1.488;2023-07-08T06:43:24;100070.50;;;27.45;35.20
29879;BME280;16752;53.364;-1.488;2023-07-08T06:46:08;100167.59;;;28.07;35.11
29879;BME280;16752;53.364;-1.488;2023-07-08T06:52:30;100038.81;;;27.22;35.98
29879;BME280;16752;53.364;-1.488;2023-07-08T06:55:18;100168.91;;;27.97;36.28
29879;BME280;16752;53.364;-1.488;2023-07-08T06:58:05;100088.53;;;27.45;36.65
29879;BME280;16752;53.364;-1.488;2023-07-08T07:00:49;100009.56;;;27.01;36.80
29879;BME280;16752;53.364;-1.488;2023-07-08T07:03:49;100050.47;;;27.09;36.36
29879;BME280;16752;53.364;-1.488;2023-07-08T07:06:44;100019.34;;;26.82;35.86
29879;BME280;16752;53.364;-1.488;2023-07-08T07:20:23;100167.75;;;27.87;35.78
29879;BME280;16752;53.364;-1.488;2023-07-08T07:25:48;100134.84;;;27.85;35.17
29879;BME280;16752;53.364;-1.488;2023-07-08T07:28:33;99987.22;;;27.57;34.28
29879;BME280;16752;53.364;-1.488;2023-07-08T07:35:05;100153.84;;;29.49;33.14
29879;BME280;16752;53.364;-1.488;2023-07-08T07:38:10;100164.94;;;28.93;34.43
29879;BME280;16752;53.364;-1.488;2023-07-08T07:41:23;100158.88;;;29.88;33.91
29879;BME280;16752;53.364;-1.488;2023-07-08T07:44:32;100158.84;;;30.29;32.69
29879;BME280;16752;53.364;-1.488;2023-07-08T07:47:27;100167.22;;;29.86;32.94
29879;BME280;16752;53.364;-1.488;2023-07-08T07:50:21;100066.44;;;28.72;33.47
29879;BME280;16752;53.364;-1.488;2023-07-08T07:53:08;100031.19;;;28.55;33.99
29879;BME280;16752;53.364;-1.488;2023-07-08T07:56:00;100119.34;;;29.21;33.56
29879;BME280;16752;53.364;-1.488;2023-07-08T07:58:45;100190.09;;;29.72;33.14
29879;BME280;16752;53.364;-1.488;2023-07-08T08:01:30;100104.16;;;29.39;33.97
29879;BME280;16752;53.364;-1.488;2023-07-08T08:04:17;100023.88;;;28.93;32.85
29879;BME280;16752;53.364;-1.488;2023-07-08T08:07:02;100105.91;;;28.67;33.99
29879;BME280;16752;53.364;-1.488;2023-07-08T08:09:46;100152.63;;;28.79;34.79
29879;BME280;16752;53.364;-1.488;2023-07-08T08:12:30;100163.69;;;29.74;33.19
29879;BME280;16752;53.364;-1.488;2023-07-08T08:15:17;100211.06;;;30.00;34.58
29879;BME280;16752;53.364;-1.488;2023-07-08T08:18:04;100127.22;;;30.65;32.04
29879;BME280;16752;53.364;-1.488;2023-07-08T08:20:50;100071.44;;;30.12;32.98
29879;BME280;16752;53.364;-1.488;2023-07-08T08:23:36;100068.47;;;29.78;32.34
29879;BME280;16752;53.364;-1.488;2023-07-08T08:26:21;100078.63;;;29.23;33.81
29879;BME280;16752;53.364;-1.488;2023-07-08T08:29:05;100081.41;;;30.11;32.48
29879;BME280;16752;53.364;-1.488;2023-07-08T08:31:57;100014.09;;;29.63;32.57
29879;BME280;16752;53.364;-1.488;2023-07-08T08:34:44;100052.97;;;29.97;33.37
29879;BME280;16752;53.364;-1.488;2023-07-08T08:37:29;100177.19;;;30.74;33.04
29879;BME280;16752;53.364;-1.488;2023-07-08T08:40:15;100083.38;;;30.63;32.14
29879;BME280;16752;53.364;-1.488;2023-07-08T08:43:12;100016.50;;;28.88;34.10
29879;BME280;16752;53.364;-1.488;2023-07-08T08:46:09;100149.38;;;29.85;34.32
29879;BME280;16752;53.364;-1.488;2023-07-08T08:49:04;100059.69;;;29.41;33.75
29879;BME280;16752;53.364;-1.488;2023-07-08T08:51:50;100106.75;;;30.69;32.93
29879;BME280;16752;53.364;-1.488;2023-07-08T08:54:36;99998.72;;;30.22;32.77
29879;BME280;16752;53.364;-1.488;2023-07-08T08:57:53;100087.41;;;30.25;33.73
29879;BME280;16752;53.364;-1.488;2023-07-08T09:03:34;100172.59;;;30.86;34.38
29879;BME280;16752;53.364;-1.488;2023-07-08T09:06:25;100172.06;;;31.01;33.53
29879;BME280;16752;53.364;-1.488;2023-07-08T09:09:15;100198.28;;;31.24;34.25
29879;BME280;16752;53.364;-1.488;2023-07-08T09:12:28;100216.44;;;30.88;34.10
29879;BME280;16752;53.364;-1.488;2023-07-08T09:15:15;100078.66;;;29.65;34.95
29879;BME280;16752;53.364;-1.488;2023-07-08T09:18:15;100175.75;;;30.13;34.88
29879;BME280;16752;53.364;-1.488;2023-07-08T09:21:15;100077.59;;;28.76;35.96
29879;BME280;16752;53.364;-1.488;2023-07-08T09:24:08;100140.28;;;29.38;35.67
29879;BME280;16752;53.364;-1.488;2023-07-08T09:26:55;100110.72;;;29.43;34.93
29879;BME280;16752;53.364;-1.488;2023-07-08T09:30:29;100162.59;;;30.52;34.13
29879;BME280;16752;53.364;-1.488;2023-07-08T09:33:27;100197.47;;;31.12;33.95
29879;BME280;16752;53.364;-1.488;2023-07-08T09:36:22;100245.03;;;30.84;34.74
29879;BME280;16752;53.364;-1.488;2023-07-08T09:39:19;100061.31;;;29.96;33.72
29879;BME280;16752;53.364;-1.488;2023-07-08T09:42:51;100213.34;;;30.26;35.08
29879;BME280;16752;53.364;-1.488;2023-07-08T09:45:46;100234.47;;;31.46;33.71
29879;BME280;16752;53.364;-1.488;2023-07-08T09:48:36;100233.22;;;31.14;33.81
29879;BME280;16752;53.364;-1.488;2023-07-08T09:51:20;100200.06;;;30.36;34.88
29879;BME280;16752;53.364;-1.488;2023-07-08T09:54:04;100235.69;;;30.57;33.50
29879;BME280;16752;53.364;-1.488;2023-07-08T09:56:58;100256.09;;;29.88;35.85
29879;BME280;16752;53.364;-1.488;2023-07-08T09:59:46;100258.63;;;30.54;34.82
29879;BME280;16752;53.364;-1.488;2023-07-08T10:02:38;100203.72;;;31.81;32.74
29879;BME280;16752;53.364;-1.488;2023-07-08T10:11:02;100259.25;;;31.95;32.76
29879;BME280;16752;53.364;-1.488;2023-07-08T10:13:50;100261.75;;;32.64;32.56
29879;BME280;16752;53.364;-1.488;2023-07-08T10:16:36;100273.38;;;31.97;33.25
29879;BME280;16752;53.364;-1.488;2023-07-08T10:19:33;100249.69;;;33.10;31.29
29879;BME280;16752;53.364;-1.488;2023-07-08T10:22:30;100275.00;;;32.43;31.81
29879;BME280;16752;53.364;-1.488;2023-07-08T10:31:37;100295.53;;;32.39;32.15
29879;BME280;16752;53.364;-1.488;2023-07-08T10:37:23;100267.94;;;31.28;33.46
29879;BME280;16752;53.364;-1.488;2023-07-08T10:40:26;100349.34;;;31.15;34.97
29879;BME280;16752;53.364;-1.488;2023-07-08T10:44:23;100354.66;;;31.10;34.85
29879;BME280;16752;53.364;-1.488;2023-07-08T10:55:50;100391.53;;;31.98;34.42
29879;BME280;16752;53.364;-1.488;2023-07-08T10:58:51;100392.59;;;30.68;36.54
29879;BME280;16752;53.364;-1.488;2023-07-08T11:02:02;100291.59;;;30.63;36.15
29879;BME280;16752;53.364;-1.488;2023-07-08T11:08:25;100250.75;;;29.69;38.04
29879;BME280;16752;53.364;-1.488;2023-07-08T11:11:47;100404.19;;;31.57;36.18
29879;BME280;16752;53.364;-1.488;2023-07-08T11:14:56;100383.84;;;30.25;38.43
29879;BME280;16752;53.364;-1.488;2023-07-08T11:17:45;100401.25;;;31.12;37.41
29879;BME280;16752;53.364;-1.488;2023-07-08T11:21:14;100402.19;;;31.06;37.11
29879;BME280;16752;53.364;-1.488;2023-07-08T11:27:10;100402.50;;;30.45;38.83
29879;BME280;16752;53.364;-1.488;2023-07-08T11:30:06;100347.31;;;30.64;37.91
29879;BME280;16752;53.364;-1.488;2023-07-08T11:33:04;100411.56;;;30.02;39.96
29879;BME280;16752;53.364;-1.488;2023-07-08T11:35:55;100419.53;;;29.97;39.89
29879;BME280;16752;53.364;-1.488;2023-07-08T11:38:54;100414.28;;;29.84;40.02
29879;BME280;16752;53.364;-1.488;2023-07-08T11:41:38;100368.97;;;30.64;37.80
29879;BME280;16752;53.364;-1.488;2023-07-08T11:44:22;100377.75;;;30.29;39.42
29879;BME280;16752;53.364;-1.488;2023-07-08T11:47:22;100413.47;;;29.40;43.18
29879;BME280;16752;53.364;-1.488;2023-07-08T11:50:29;100398.19;;;30.25;41.92
29879;BME280;16752;53.364;-1.488;2023-07-08T11:53:38;100366.72;;;30.31;43.52
29879;BME280;16752;53.364;-1.488;2023-07-08T11:57:04;100277.19;;;29.49;45.70
29879;BME280;16752;53.364;-1.488;2023-07-08T12:00:15;100242.38;;;29.41;44.76
29879;BME280;16752;53.364;-1.488;2023-07-08T12:03:18;100325.75;;;29.86;46.31
29879;BME280;16752;53.364;-1.488;2023-07-08T12:09:20;100289.16;;;29.71;46.02
29879;BME280;16752;53.364;-1.488;2023-07-08T12:12:17;100220.13;;;29.27;46.41
29879;BME280;16752;53.364;-1.488;2023-07-08T12:18:28;100380.63;;;30.46;47.19
29879;BME280;16752;53.364;-1.488;2023-07-08T12:21:15;100316.69;;;30.10;46.73
29879;BME280;16752;53.364;-1.488;2023-07-08T12:24:04;100394.50;;;30.50;46.80
29879;BME280;16752;53.364;-1.488;2023-07-08T12:26:49;100334.22;;;29.89;47.41
29879;BME280;16752;53.364;-1.488;2023-07-08T12:29:59;100266.53;;;28.99;46.22
29879;BME280;16752;53.364;-1.488;2023-07-08T12:33:02;100419.97;;;29.75;47.15
29879;BME280;16752;53.364;-1.488;2023-07-08T12:35:50;100370.16;;;29.71;46.58
29879;BME280;16752;53.364;-1.488;2023-07-08T12:38:40;100334.59;;;29.38;47.16
29879;BME280;16752;53.364;-1.488;2023-07-08T12:41:31;100364.56;;;29.55;47.67
29879;BME280;16752;53.364;-1.488;2023-07-08T12:44:18;100419.34;;;28.87;47.17
29879;BME280;16752;53.364;-1.488;2023-07-08T12:47:03;100337.41;;;29.06;48.05
29879;BME280;16752;53.364;-1.488;2023-07-08T12:49:47;100333.59;;;29.14;48.17
29879;BME280;16752;53.364;-1.488;2023-07-08T12:52:31;100400.25;;;29.75;48.67
29879;BME280;16752;53.364;-1.488;2023-07-08T12:55:16;100353.16;;;29.09;46.94
29879;BME280;16752;53.364;-1.488;2023-07-08T12:58:00;100389.69;;;29.55;47.28
29879;BME280;16752;53.364;-1.488;2023-07-08T13:00:45;100399.81;;;29.35;48.10
29879;BME280;16752;53.364;-1.488;2023-07-08T13:03:35;100302.50;;;28.61;48.54
29879;BME280;16752;53.364;-1.488;2023-07-08T13:06:34;100280.25;;;28.48;46.23
29879;BME280;16752;53.364;-1.488;2023-07-08T13:09:44;100378.91;;;28.49;46.10
29879;BME280;16752;53.364;-1.488;2023-07-08T13:12:47;100356.00;;;28.33;47.77
29879;BME280;16752;53.364;-1.488;2023-07-08T13:15:38;100338.84;;;27.76;48.36
29879;BME280;16752;53.364;-1.488;2023-07-08T13:18:36;100331.41;;;28.54;46.97
29879;BME280;16752;53.364;-1.488;2023-07-08T13:21:21;100437.38;;;28.04;48.44
29879;BME280;16752;53.364;-1.488;2023-07-08T13:24:11;100465.88;;;29.32;46.62
29879;BME280;16752;53.364;-1.488;2023-07-08T13:26:56;100467.59;;;28.57;47.61
29879;BME280;16752;53.364;-1.488;2023-07-08T13:29:41;100366.13;;;27.99;46.91
29879;BME280;16752;53.364;-1.488;2023-07-08T13:32:31;100442.63;;;27.72;46.43
29879;BME280;16752;53.364;-1.488;2023-07-08T13:35:42;100369.81;;;26.61;48.44
29879;BME280;16752;53.364;-1.488;2023-07-08T13:38:32;100446.09;;;27.92;47.57
29879;BME280;16752;53.364;-1.488;2023-07-08T13:41:21;100426.47;;;26.86;48.99
29879;BME280;16752;53.364;-1.488;2023-07-08T13:44:08;100387.19;;;26.98;48.77
29879;BME280;16752;53.364;-1.488;2023-07-08T13:46:55;100430.16;;;27.84;47.01
29879;BME280;16752;53.364;-1.488;2023-07-08T13:49:45;100334.22;;;27.96;47.70
29879;BME280;16752;53.364;-1.488;2023-07-08T13:52:29;100383.91;;;28.45;47.04
29879;BME280;16752;53.364;-1.488;2023-07-08T13:55:18;100293.78;;;28.91;46.20
29879;BME280;16752;53.364;-1.488;2023-07-08T13:58:02;100358.03;;;29.62;46.04
29879;BME280;16752;53.364;-1.488;2023-07-08T14:00:47;100362.13;;;29.83;43.55
29879;BME280;16752;53.364;-1.488;2023-07-08T14:03:31;100384.06;;;28.82;44.22
29879;BME280;16752;53.364;-1.488;2023-07-08T14:06:24;100354.81;;;29.10;43.76
29879;BME280;16752;53.364;-1.488;2023-07-08T14:09:20;100326.53;;;29.56;42.94
29879;BME280;16752;53.364;-1.488;2023-07-08T14:12:04;100310.22;;;29.26;42.72
29879;BME280;16752;53.364;-1.488;2023-07-08T14:14:49;100287.38;;;29.65;41.92
29879;BME280;16752;53.364;-1.488;2023-07-08T14:17:33;100244.47;;;30.05;40.74
29879;BME280;16752;53.364;-1.488;2023-07-08T14:20:18;100238.06;;;30.00;42.17
29879;BME280;16752;53.364;-1.488;2023-07-08T14:23:02;100365.31;;;30.70;44.37
29879;BME280;16752;53.364;-1.488;2023-07-08T14:25:46;100287.22;;;30.08;42.37
29879;BME280;16752;53.364;-1.488;2023-07-08T14:28:30;100364.63;;;30.86;43.03
29879;BME280;16752;53.364;-1.488;2023-07-08T14:31:18;100396.38;;;30.37;41.47
29879;BME280;16752;53.364;-1.488;2023-07-08T14:34:07;100395.59;;;30.00;41.76
29879;BME280;16752;53.364;-1.488;2023-07-08T14:36:51;100281.06;;;28.98;42.64
29879;BME280;16752;53.364;-1.488;2023-07-08T14:39:35;100355.72;;;30.14;42.20
29879;BME280;16752;53.364;-1.488;2023-07-08T14:42:20;100423.72;;;30.59;43.78
29879;BME280;16752;53.364;-1.488;2023-07-08T14:45:07;100365.06;;;29.81;42.79
29879;BME280;16752;53.364;-1.488;2023-07-08T14:47:51;100329.53;;;29.48;44.20
29879;BME280;16752;53.364;-1.488;2023-07-08T14:50:35;100300.53;;;29.00;44.38
29879;BME280;16752;53.364;-1.488;2023-07-08T14:53:20;100307.66;;;28.38;45.29
29879;BME280;16752;53.364;-1.488;2023-07-08T14:56:12;100344.38;;;28.96;44.81
29879;BME280;16752;53.364;-1.488;2023-07-08T14:58:57;100330.56;;;28.79;45.46
29879;BME280;16752;53.364;-1.488;2023-07-08T15:01:42;100445.50;;;28.42;46.79
29879;BME280;16752;53.364;-1.488;2023-07-08T15:04:27;100347.44;;;28.05;47.13
29879;BME280;16752;53.364;-1.488;2023-07-08T15:07:10;100419.44;;;28.29;46.73
29879;BME280;16752;53.364;-1.488;2023-07-08T15:09:55;100342.00;;;27.53;48.01
29879;BME280;16752;53.364;-1.488;2023-07-08T15:12:39;100352.38;;;27.63;47.97
29879;BME280;16752;53.364;-1.488;2023-07-08T15:15:27;100404.75;;;28.95;45.92
29879;BME280;16752;53.364;-1.488;2023-07-08T15:18:19;100261.78;;;28.20;45.16
29879;BME280;16752;53.364;-1.488;2023-07-08T15:21:06;100382.16;;;28.57;45.87
29879;BME280;16752;53.364;-1.488;2023-07-08T15:23:51;100458.38;;;29.77;44.73
29879;BME280;16752;53.364;-1.488;2023-07-08T15:26:35;100407.44;;;28.95;44.46
29879;BME280;16752;53.364;-1.488;2023-07-08T15:29:23;100294.63;;;28.04;46.97
29879;BME280;16752;53.364;-1.488;2023-07-08T15:32:23;100449.09;;;28.99;45.03
29879;BME280;16752;53.364;-1.488;2023-07-08T15:35:16;100351.38;;;28.72;45.43
29879;BME280;16752;53.364;-1.488;2023-07-08T15:38:00;100423.28;;;29.59;44.23
29879;BME280;16752;53.364;-1.488;2023-07-08T15:40:47;100389.28;;;29.08;44.86
29879;BME280;16752;53.364;-1.488;2023-07-08T15:43:31;100386.81;;;29.87;44.90
29879;BME280;16752;53.364;-1.488;2023-07-08T15:46:16;100419.38;;;29.30;46.15
29879;BME280;16752;53.364;-1.488;2023-07-08T15:49:04;100384.38;;;28.42;45.77
29879;BME280;16752;53.364;-1.488;2023-07-08T15:51:54;100376.63;;;28.77;44.57
29879;BME280;16752;53.364;-1.488;2023-07-08T15:54:38;100368.06;;;29.55;42.91
29879;BME280;16752;53.364;-1.488;2023-07-08T15:57:22;100274.94;;;29.09;42.40
29879;BME280;16752;53.364;-1.488;2023-07-08T16:00:10;100372.31;;;29.01;42.17
29879;BME280;16752;53.364;-1.488;2023-07-08T16:03:01;100364.47;;;29.79;41.30
29879;BME280;16752;53.364;-1.488;2023-07-08T16:05:51;100377.00;;;31.06;39.59
29879;BME280;16752;53.364;-1.488;2023-07-08T16:08:35;100403.81;;;30.24;39.96
29879;BME280;16752;53.364;-1.488;2023-07-08T16:11:29;100424.59;;;30.41;40.59
29879;BME280;16752;53.364;-1.488;2023-07-08T16:14:15;100377.53;;;29.21;41.95
29879;BME280;16752;53.364;-1.488;2023-07-08T16:17:00;100353.44;;;29.63;41.22